Time;durP1;ratioP1;P1;durP2;ratioP2;P2;SDS_P1;SDS_P2;PMS_P1;PMS_P2;Temp;Humidity;BMP_temperature;BMP_pressure;BME280_temperature;BME280_humidity;BME280_pressure;Samples;Min_cycle;Max_cycle;Signal;HPM_P1;HPM_P2
2022/04/17 00:01:03;;;;;;;4.03;2.80;;;5.80;94.70;;;;;;5074849;28;20232;-61
2022/04/17 00:03:30;;;;;;;3.53;2.77;;;5.80;94.60;;;;;;5074866;28;20534;-59
2022/04/17 00:05:58;;;;;;;4.30;3.00;;;5.80;94.40;;;;;;5074765;28;20297;-61
2022/04/17 00:08:25;;;;;;;4.47;3.13;;;5.80;94.40;;;;;;5074500;28;20225;-60
2022/04/17 00:10:52;;;;;;;4.67;2.93;;;5.80;94.70;;;;;;5074713;28;20201;-59
2022/04/17 00:13:20;;;;;;;7.83;3.50;;;5.80;94.60;;;;;;5073955;28;20291;-60
2022/04/17 00:15:46;;;;;;;5.80;3.40;;;5.80;94.70;;;;;;5074720;28;20224;-59
2022/04/17 00:18:13;;;;;;;4.63;3.47;;;5.70;94.80;;;;;;5074302;28;20682;-60
2022/04/17 00:20:40;;;;;;;4.93;3.27;;;5.60;94.90;;;;;;5074353;28;20638;-60
2022/04/17 00:23:08;;;;;;;8.03;3.27;;;5.60;94.70;;;;;;5074801;28;20239;-60
2022/04/17 00:25:35;;;;;;;5.77;3.53;;;5.60;94.70;;;;;;5074121;28;20221;-59
2022/04/17 00:28:01;;;;;;;4.70;3.47;;;5.50;94.70;;;;;;5074340;28;20225;-60
2022/04/17 00:30:28;;;;;;;6.40;4.07;;;5.50;94.60;;;;;;5074081;28;20239;-61
2022/04/17 00:32:55;;;;;;;9.70;4.93;;;5.60;94.60;;;;;;5074240;28;20258;-59
2022/04/17 00:35:21;;;;;;;14.00;7.93;;;5.50;94.50;;;;;;5074285;28;20225;-60
2022/04/17 00:37:48;;;;;;;7.37;4.70;;;5.50;94.60;;;;;;5074358;28;20213;-59
2022/04/17 00:40:16;;;;;;;8.47;4.33;;;5.40;94.90;;;;;;5073918;28;20251;-59
2022/04/17 00:42:43;;;;;;;6.03;4.43;;;5.40;95.10;;;;;;5074376;28;20205;-59
2022/04/17 00:45:10;;;;;;;5.90;3.50;;;5.30;95.30;;;;;;5073971;28;20232;-59
2022/04/17 00:47:36;;;;;;;5.47;3.27;;;5.30;95.40;;;;;;5074002;28;20263;-59
2022/04/17 00:50:05;;;;;;;6.07;3.33;;;5.30;95.50;;;;;;5073737;28;20224;-59
2022/04/17 00:52:32;;;;;;;4.47;3.00;;;5.20;95.60;;;;;;5074240;28;20311;-60
2022/04/17 00:55:01;;;;;;;5.90;3.17;;;5.10;95.50;;;;;;5073957;28;20236;-59
2022/04/17 00:57:31;;;;;;;5.00;2.90;;;5.00;95.70;;;;;;5073774;28;20263;-58
2022/04/17 00:59:58;;;;;;;4.90;3.20;;;4.80;95.70;;;;;;5073784;28;20250;-59
2022/04/17 01:02:25;;;;;;;4.47;2.97;;;4.70;96.00;;;;;;5073838;28;20576;-59
2022/04/17 01:04:52;;;;;;;4.37;2.83;;;4.70;96.10;;;;;;5073807;28;20220;-58
2022/04/17 01:07:22;;;;;;;3.50;2.83;;;4.70;96.30;;;;;;5073768;28;20209;-61
2022/04/17 01:09:50;;;;;;;3.77;2.33;;;4.80;96.30;;;;;;5073961;28;20315;-60
2022/04/17 01:12:17;;;;;;;4.77;3.07;;;4.80;96.20;;;;;;5074207;28;20216;-60
2022/04/17 01:14:46;;;;;;;3.70;2.47;;;4.80;96.10;;;;;;5074684;28;20240;-59
2022/04/17 01:17:13;;;;;;;4.53;3.33;;;4.90;96.00;;;;;;5073966;28;20233;-60
2022/04/17 01:19:40;;;;;;;5.57;2.97;;;4.80;95.80;;;;;;5073462;28;20205;-59
2022/04/17 01:22:10;;;;;;;4.20;3.03;;;4.80;96.00;;;;;;5073718;28;20238;-59
2022/04/17 01:27:24;;;;;;;4.20;2.83;;;4.80;95.60;;;;;;5073098;28;20602;-59
2022/04/17 01:29:51;;;;;;;4.07;2.43;;;4.90;95.40;;;;;;5072788;28;20225;-60
2022/04/17 01:32:19;;;;;;;5.93;2.83;;;4.90;95.40;;;;;;5073067;28;20644;-59
2022/04/17 01:34:46;;;;;;;3.73;2.60;;;5.00;95.30;;;;;;5073367;28;20262;-60
2022/04/17 01:37:14;;;;;;;3.90;2.80;;;5.00;95.00;;;;;;5072946;28;20209;-59
2022/04/17 01:39:42;;;;;;;3.37;2.33;;;5.10;94.90;;;;;;5072564;28;20201;-61
2022/04/17 01:42:09;;;;;;;4.27;2.50;;;5.10;94.70;;;;;;5072992;28;20214;-60
2022/04/17 01:44:36;;;;;;;4.33;2.60;;;5.20;94.60;;;;;;5096646;22;20902;-62
2022/04/17 01:47:04;;;;;;;3.23;2.33;;;5.20;94.50;;;;;;5072699;28;20201;-61
2022/04/17 01:49:30;;;;;;;3.20;2.30;;;5.20;94.50;;;;;;5072264;28;20221;-62
2022/04/17 01:51:58;;;;;;;3.87;2.67;;;5.20;94.50;;;;;;5072632;28;20213;-62
2022/04/17 01:54:27;;;;;;;3.90;2.60;;;5.20;94.80;;;;;;5072337;28;20215;-61
2022/04/17 01:56:55;;;;;;;3.53;2.60;;;5.20;95.00;;;;;;5072461;28;20211;-65
2022/04/17 01:59:23;;;;;;;3.47;2.50;;;5.10;95.20;;;;;;5072150;28;20626;-62
2022/04/17 02:01:51;;;;;;;3.57;2.33;;;5.10;95.30;;;;;;5072629;28;20655;-62
2022/04/17 02:04:17;;;;;;;4.20;2.83;;;5.10;95.50;;;;;;5072296;28;20576;-61
2022/04/17 02:06:44;;;;;;;3.60;2.37;;;5.00;95.40;;;;;;5072485;28;20205;-62
2022/04/17 02:09:13;;;;;;;4.13;2.57;;;5.00;95.30;;;;;;5072088;28;20228;-62
2022/04/17 02:11:42;;;;;;;4.97;2.30;;;5.00;95.30;;;;;;5072194;28;20668;-61
2022/04/17 02:14:09;;;;;;;2.90;2.40;;;5.00;95.30;;;;;;5073020;28;20208;-61
2022/04/17 02:16:36;;;;;;;3.50;2.47;;;5.00;95.20;;;;;;5073161;28;20230;-61
2022/04/17 02:19:04;;;;;;;3.60;2.60;;;5.00;95.50;;;;;;5072572;28;20683;-61
2022/04/17 02:21:31;;;;;;;5.13;2.83;;;4.90;95.60;;;;;;5072050;28;20205;-62
2022/04/17 02:23:59;;;;;;;4.27;2.57;;;4.90;95.70;;;;;;5072213;28;20296;-63
2022/04/17 02:26:25;;;;;;;5.10;2.63;;;4.90;95.70;;;;;;5071857;28;20228;-61
2022/04/17 02:28:56;;;;;;;3.73;2.77;;;4.90;95.60;;;;;;5071914;28;20220;-61
2022/04/17 02:31:23;;;;;;;4.00;2.53;;;4.90;95.60;;;;;;5072046;28;20205;-62
2022/04/17 02:33:50;;;;;;;3.40;2.47;;;4.90;95.60;;;;;;5072124;28;20208;-62
2022/04/17 02:36:17;;;;;;;3.23;2.70;;;4.90;95.60;;;;;;5071182;28;20239;-62
2022/04/17 02:38:44;;;;;;;3.50;2.63;;;4.90;95.60;;;;;;5071576;28;20208;-61
2022/04/17 02:41:10;;;;;;;2.87;2.10;;;4.80;95.60;;;;;;5072104;28;20312;-61
2022/04/17 02:43:37;;;;;;;3.97;2.47;;;4.70;95.40;;;;;;5072011;28;20216;-61
2022/04/17 02:46:05;;;;;;;3.73;2.33;;;4.70;95.30;;;;;;5071727;28;20237;-61
2022/04/17 02:48:31;;;;;;;3.70;2.30;;;4.70;95.30;;;;;;5071596;28;20209;-61
2022/04/17 02:50:58;;;;;;;5.13;3.73;;;4.70;95.40;;;;;;5072239;28;20205;-61
2022/04/17 02:53:25;;;;;;;4.60;2.40;;;4.70;95.70;;;;;;5071840;28;20200;-61
2022/04/17 02:55:52;;;;;;;3.67;2.90;;;4.60;95.70;;;;;;5072118;28;20765;-60
2022/04/17 02:58:18;;;;;;;4.27;2.67;;;4.70;95.90;;;;;;5071727;28;20711;-62
2022/04/17 03:06:16;;;;;;;3.70;2.60;;;4.50;96.20;;;;;;5071835;28;20227;-61
2022/04/17 03:08:43;;;;;;;4.87;3.00;;;4.40;96.40;;;;;;5071735;28;20737;-61
2022/04/17 03:11:11;;;;;;;4.67;3.33;;;4.40;96.60;;;;;;5071939;28;20216;-61
2022/04/17 03:13:38;;;;;;;4.40;2.97;;;4.40;96.70;;;;;;5071572;28;20296;-61
2022/04/17 03:16:05;;;;;;;4.90;3.03;;;4.30;96.70;;;;;;5071303;28;20229;-62
2022/04/17 03:18:34;;;;;;;4.83;3.30;;;4.30;96.80;;;;;;5071368;28;20213;-62
2022/04/17 03:21:00;;;;;;;3.87;2.63;;;4.30;96.80;;;;;;5071774;28;20258;-62
2022/04/17 03:23:27;;;;;;;5.40;2.80;;;4.30;96.80;;;;;;5071728;28;20208;-62
2022/04/17 03:25:54;;;;;;;3.10;2.80;;;4.30;96.90;;;;;;5071290;28;20712;-62
2022/04/17 03:28:21;;;;;;;5.40;3.37;;;4.30;97.20;;;;;;5071420;28;20205;-61
2022/04/17 03:30:48;;;;;;;3.00;2.67;;;4.20;97.40;;;;;;5071599;28;20353;-62
2022/04/17 03:33:14;;;;;;;4.13;2.90;;;4.10;97.80;;;;;;5071162;28;20611;-62
2022/04/17 03:35:42;;;;;;;4.23;3.00;;;4.00;97.70;;;;;;5071327;28;20275;-62
2022/04/17 03:38:10;;;;;;;3.60;3.10;;;3.90;97.90;;;;;;5071283;28;20201;-62
2022/04/17 03:40:37;;;;;;;4.27;2.83;;;3.90;98.20;;;;;;5071102;28;20376;-62
2022/04/17 03:43:04;;;;;;;5.97;3.10;;;3.90;98.40;;;;;;5071463;28;20229;-62
2022/04/17 03:45:30;;;;;;;4.57;3.47;;;3.90;98.40;;;;;;5071092;28;20241;-62
2022/04/17 03:47:58;;;;;;;4.33;3.30;;;3.80;98.40;;;;;;5072257;28;20274;-62
2022/04/17 03:50:25;;;;;;;4.30;3.03;;;3.80;98.20;;;;;;5075003;28;20229;-63
2022/04/17 03:52:53;;;;;;;3.47;2.87;;;3.80;98.10;;;;;;5074905;28;20213;-62
2022/04/17 03:55:20;;;;;;;4.00;2.70;;;3.60;98.20;;;;;;5074906;28;20278;-62
2022/04/17 03:57:47;;;;;;;4.90;3.03;;;3.60;98.20;;;;;;5074657;28;20599;-62
2022/04/17 04:00:15;;;;;;;4.40;2.97;;;3.60;98.30;;;;;;5074489;28;20204;-62
2022/04/17 04:02:43;;;;;;;5.80;3.67;;;3.60;98.40;;;;;;5075026;28;20217;-62
2022/04/17 04:05:11;;;;;;;5.27;3.30;;;3.60;98.50;;;;;;5074759;28;20220;-62
2022/04/17 04:07:38;;;;;;;3.30;2.53;;;3.60;98.50;;;;;;5074725;28;20555;-62
2022/04/17 04:10:08;;;;;;;4.33;2.90;;;3.50;98.50;;;;;;5074355;28;20221;-62
2022/04/17 04:12:35;;;;;;;3.23;2.50;;;3.40;98.90;;;;;;5074346;28;20696;-62
2022/04/17 04:15:01;;;;;;;2.70;2.33;;;3.30;99.00;;;;;;5074621;28;20225;-62
2022/04/17 04:17:28;;;;;;;5.57;2.57;;;3.30;99.20;;;;;;5074349;28;20718;-62
2022/04/17 04:19:55;;;;;;;3.97;2.67;;;3.20;99.30;;;;;;5074309;28;20197;-62
2022/04/17 04:22:21;;;;;;;4.83;2.70;;;3.20;99.30;;;;;;5074394;28;20208;-62
2022/04/17 04:24:49;;;;;;;3.00;2.47;;;3.20;99.40;;;;;;5074387;28;20311;-63
2022/04/17 04:30:01;;;;;;;3.97;2.50;;;3.10;99.60;;;;;;5074229;28;20231;-61
2022/04/17 04:32:28;;;;;;;4.17;2.80;;;3.00;99.90;;;;;;5074208;28;20250;-61
2022/04/17 04:34:58;;;;;;;3.17;2.87;;;2.90;99.90;;;;;;5073886;28;20730;-61
2022/04/17 04:37:25;;;;;;;6.17;3.37;;;2.90;99.90;;;;;;5074146;28;20205;-61
2022/04/17 04:39:52;;;;;;;5.37;4.40;;;3.00;99.90;;;;;;5074924;28;20327;-61
2022/04/17 04:42:20;;;;;;;3.90;3.50;;;3.10;99.90;;;;;;5074047;28;20263;-61
2022/04/17 04:44:47;;;;;;;5.67;4.20;;;3.10;99.90;;;;;;5073820;28;20374;-62
2022/04/17 04:47:13;;;;;;;4.70;3.40;;;3.10;99.90;;;;;;5073765;28;20633;-62
2022/04/17 04:49:39;;;;;;;4.43;3.27;;;3.20;99.90;;;;;;5073783;28;20282;-62
2022/04/17 04:52:07;;;;;;;4.30;3.00;;;3.30;99.90;;;;;;5073704;28;20209;-62
2022/04/17 04:54:34;;;;;;;6.00;2.90;;;3.30;99.90;;;;;;5073911;28;20271;-61
2022/04/17 04:57:02;;;;;;;5.37;2.97;;;3.40;99.90;;;;;;5073799;28;20219;-61
2022/04/17 04:59:30;;;;;;;4.80;2.80;;;3.40;99.90;;;;;;5072854;28;20203;-62
2022/04/17 05:01:57;;;;;;;4.20;2.40;;;3.50;99.90;;;;;;5073615;28;20300;-61
2022/04/17 05:04:24;;;;;;;4.07;3.20;;;3.50;99.90;;;;;;5073652;28;20216;-61
2022/04/17 05:06:51;;;;;;;4.13;3.10;;;3.50;99.90;;;;;;5073331;28;20316;-61
2022/04/17 05:09:17;;;;;;;6.40;3.67;;;3.40;99.90;;;;;;5073086;28;20299;-62
2022/04/17 05:11:46;;;;;;;5.07;2.80;;;3.50;99.90;;;;;;5073565;28;20200;-61
2022/04/17 05:14:12;;;;;;;5.23;3.13;;;3.60;99.90;;;;;;5073427;28;20267;-61
2022/04/17 05:16:41;;;;;;;3.50;3.07;;;3.80;99.90;;;;;;5073187;28;20209;-61
2022/04/17 05:19:20;;;;;;;4.47;3.10;;;3.90;99.90;;;;;;5073229;28;20212;-62
2022/04/17 05:21:48;;;;;;;4.10;3.00;;;4.00;99.90;;;;;;5073607;28;20274;-62
2022/04/17 05:24:15;;;;;;;3.70;2.67;;;4.10;99.70;;;;;;5073342;28;20205;-62
2022/04/17 05:26:42;;;;;;;3.00;2.70;;;4.20;99.60;;;;;;5073392;28;20208;-62
2022/04/17 05:29:08;;;;;;;3.43;2.90;;;4.30;99.50;;;;;;5074105;28;20205;-62
2022/04/17 05:31:35;;;;;;;5.93;3.37;;;4.40;99.50;;;;;;5073746;28;20229;-61
2022/04/17 05:34:03;;;;;;;7.43;3.53;;;4.50;99.30;;;;;;5073227;28;20560;-61
2022/04/17 05:36:30;;;;;;;7.40;3.83;;;4.60;99.20;;;;;;5073340;28;20232;-62
2022/04/17 05:38:56;;;;;;;8.17;5.67;;;4.70;98.90;;;;;;5072704;28;20209;-62
2022/04/17 05:41:26;;;;;;;6.47;4.80;;;4.90;99.00;;;;;;5072956;28;20688;-61
2022/04/17 05:43:54;;;;;;;7.83;3.80;;;6.00;99.50;;;;;;5072820;28;20279;-61
2022/04/17 05:46:21;;;;;;;7.00;5.50;;;8.10;97.30;;;;;;5072377;28;20302;-62
2022/04/17 05:48:47;;;;;;;5.33;3.67;;;10.40;93.00;;;;;;5072831;28;20208;-62
2022/04/17 05:51:16;;;;;;;5.53;3.40;;;12.00;85.60;;;;;;5072583;28;20735;-62
2022/04/17 05:53:42;;;;;;;5.03;3.43;;;13.40;81.60;;;;;;5072617;28;20215;-61
2022/04/17 05:56:09;;;;;;;5.97;3.50;;;14.80;79.60;;;;;;5072674;28;20247;-61
2022/04/17 05:58:36;;;;;;;4.03;2.80;;;16.30;74.80;;;;;;5072796;28;20201;-61
2022/04/17 06:01:03;;;;;;;4.63;3.60;;;17.70;67.50;;;;;;5072646;28;20263;-61
2022/04/17 06:03:30;;;;;;;3.97;2.92;;;18.90;65.30;;;;;;5072536;28;20254;-61
2022/04/17 06:05:57;;;;;;;3.00;2.70;;;19.60;60.50;;;;;;5072277;28;20625;-61
2022/04/17 06:08:25;;;;;;;6.05;4.20;;;20.40;57.30;;;;;;5072398;28;20209;-61
2022/04/17 06:10:52;;;;;;;5.50;3.20;;;20.90;57.30;;;;;;5072033;28;20217;-61
2022/04/17 06:13:19;;;;;;;3.97;3.15;;;21.70;54.30;;;;;;5072331;28;20237;-61
2022/04/17 06:15:46;;;;;;;5.90;4.03;;;22.30;53.80;;;;;;5072377;28;20289;-61
2022/04/17 06:18:13;;;;;;;3.42;2.75;;;22.90;52.00;;;;;;5072371;28;20209;-61
2022/04/17 06:20:40;;;;;;;6.25;2.70;;;23.20;50.40;;;;;;5072233;28;20246;-60
2022/04/17 06:23:06;;;;;;;2.50;1.75;;;23.70;49.20;;;;;;5072505;28;20212;-61
2022/04/17 06:25:34;;;;;;;3.42;2.05;;;24.00;46.00;;;;;;5072200;28;20720;-61
2022/04/17 06:28:01;;;;;;;2.55;2.00;;;24.00;46.20;;;;;;5072043;28;20221;-60
2022/04/17 06:30:28;;;;;;;4.30;3.00;;;24.10;46.00;;;;;;5072177;28;20617;-60
2022/04/17 06:32:55;;;;;;;3.60;1.90;;;24.50;46.20;;;;;;5071879;28;20201;-61
2022/04/17 06:35:22;;;;;;;2.35;1.90;;;24.70;43.50;;;;;;5072227;28;20278;-60
2022/04/17 06:37:50;;;;;;;2.50;1.67;;;24.10;44.70;;;;;;5071996;28;20208;-60
2022/04/17 06:40:18;;;;;;;2.22;1.70;;;23.90;44.70;;;;;;5071671;28;20201;-62
2022/04/17 06:42:47;;;;;;;3.83;1.88;;;24.00;44.10;;;;;;5072138;28;20255;-59
2022/04/17 06:45:14;;;;;;;4.03;2.65;;;23.90;44.10;;;;;;5071985;28;20232;-60
2022/04/17 06:47:41;;;;;;;2.05;1.85;;;23.30;45.20;;;;;;5072043;28;20208;-60
2022/04/17 06:50:08;;;;;;;3.72;2.30;;;23.30;45.70;;;;;;5071738;28;20253;-60
2022/04/17 06:52:35;;;;;;;2.58;1.70;;;23.80;46.20;;;;;;5071957;28;20262;-60
2022/04/17 06:55:03;;;;;;;3.00;1.60;;;24.50;42.60;;;;;;5071566;28;20224;-60
2022/04/17 06:57:30;;;;;;;6.80;4.13;;;24.50;43.00;;;;;;5071864;28;20201;-60
2022/04/17 06:59:59;;;;;;;2.10;1.63;;;24.60;43.60;;;;;;5071673;28;20679;-60
2022/04/17 07:02:26;;;;;;;6.53;1.88;;;24.90;43.00;;;;;;5071760;28;20212;-60
2022/04/17 07:04:52;;;;;;;2.95;1.92;;;25.50;41.10;;;;;;5071767;28;20604;-60
2022/04/17 07:07:19;;;;;;;1.65;1.30;;;25.70;41.40;;;;;;5071543;28;20279;-60
2022/04/17 07:09:46;;;;;;;2.25;1.50;;;25.40;40.20;;;;;;5071377;28;20574;-61
2022/04/17 07:12:13;;;;;;;2.75;1.70;;;25.00;40.00;;;;;;5071723;28;20205;-60
2022/04/17 07:14:40;;;;;;;4.75;2.08;;;24.50;40.80;;;;;;5071651;28;20641;-61
2022/04/17 07:17:08;;;;;;;2.45;2.00;;;24.20;40.80;;;;;;5071532;28;20689;-61
2022/04/17 07:19:35;;;;;;;3.78;1.75;;;23.90;41.20;;;;;;5071535;28;20206;-61
2022/04/17 07:22:01;;;;;;;3.05;2.10;;;23.70;40.70;;;;;;5071599;28;20235;-60
2022/04/17 07:24:28;;;;;;;3.20;1.80;;;23.50;42.30;;;;;;5075195;28;20209;-61
2022/04/17 07:26:56;;;;;;;2.08;1.58;;;23.90;41.00;;;;;;5075741;28;20204;-61
2022/04/17 07:29:23;;;;;;;2.88;1.85;;;23.80;41.20;;;;;;5075431;28;20204;-60
2022/04/17 07:31:51;;;;;;;2.85;2.00;;;23.70;41.00;;;;;;5075526;28;20578;-61
2022/04/17 07:34:19;;;;;;;2.00;1.40;;;23.50;41.00;;;;;;5075456;28;20205;-60
2022/04/17 07:36:47;;;;;;;2.05;1.85;;;23.30;41.20;;;;;;5075450;28;20616;-60
2022/04/17 07:39:16;;;;;;;1.95;1.65;;;22.90;42.40;;;;;;5075309;28;20270;-60
2022/04/17 07:41:44;;;;;;;2.38;2.03;;;22.60;44.10;;;;;;5075224;28;20634;-60
2022/04/17 07:44:12;;;;;;;2.95;2.00;;;23.30;44.20;;;;;;5075154;28;20201;-56
2022/04/17 07:46:39;;;;;;;4.88;1.85;;;23.80;43.70;;;;;;5099364;22;20327;-59
2022/04/17 07:49:05;;;;;;;1.80;1.38;;;24.80;41.70;;;;;;5074414;28;20288;-57
2022/04/17 07:51:34;;;;;;;2.17;1.70;;;25.60;39.60;;;;;;5075043;28;20236;-57
2022/04/17 07:54:01;;;;;;;2.97;2.28;;;26.00;39.10;;;;;;5075272;28;20211;-58
2022/04/17 07:56:28;;;;;;;2.58;1.50;;;26.30;38.60;;;;;;5074766;28;20225;-57
2022/04/17 07:58:55;;;;;;;2.40;1.50;;;26.50;38.20;;;;;;5074657;28;20205;-58
2022/04/17 08:01:22;;;;;;;2.33;1.60;;;26.30;38.00;;;;;;5074918;28;20283;-57
2022/04/17 08:03:49;;;;;;;3.30;2.40;;;26.40;37.90;;;;;;5074547;28;20692;-57
2022/04/17 08:06:17;;;;;;;1.88;1.30;;;26.60;37.80;;;;;;5074572;28;20320;-58
2022/04/17 08:08:46;;;;;;;3.03;1.98;;;26.60;36.90;;;;;;5074680;28;20231;-58
2022/04/17 08:11:13;;;;;;;3.85;1.50;;;26.50;37.20;;;;;;5074091;28;20425;-58
2022/04/17 08:13:42;;;;;;;2.35;1.45;;;26.00;36.80;;;;;;5074452;28;20206;-58
2022/04/17 08:16:09;;;;;;;3.00;1.50;;;25.40;37.80;;;;;;5074164;28;20225;-57
2022/04/17 08:18:36;;;;;;;2.05;1.70;;;24.40;38.90;;;;;;5074830;28;20232;-58
2022/04/17 08:21:04;;;;;;;2.85;1.40;;;23.10;40.00;;;;;;5074189;28;20217;-58
2022/04/17 08:23:31;;;;;;;2.30;1.60;;;21.70;41.00;;;;;;5074632;28;20296;-58
2022/04/17 08:25:59;;;;;;;3.38;1.50;;;19.70;42.70;;;;;;5075119;28;20282;-58
2022/04/17 08:28:26;;;;;;;2.42;1.50;;;18.10;44.40;;;;;;5074645;28;20258;-57
2022/04/17 08:30:53;;;;;;;3.73;1.53;;;16.40;46.40;;;;;;5074055;28;20229;-57
2022/04/17 08:33:20;;;;;;;2.37;1.50;;;15.30;48.50;;;;;;5074301;28;20664;-58
2022/04/17 08:35:46;;;;;;;3.00;1.80;;;14.20;49.80;;;;;;5073096;28;20358;-57
2022/04/17 08:38:16;;;;;;;2.40;1.70;;;13.60;51.70;;;;;;5074480;28;20209;-58
2022/04/17 08:40:43;;;;;;;3.30;1.40;;;13.10;53.80;;;;;;5073870;28;20290;-57
2022/04/17 08:43:10;;;;;;;3.13;1.70;;;12.80;53.50;;;;;;5073899;28;20205;-57
2022/04/17 08:45:38;;;;;;;2.40;1.50;;;12.60;54.30;;;;;;5073887;28;20233;-57
2022/04/17 08:48:06;;;;;;;3.23;1.40;;;12.50;54.10;;;;;;5073901;28;20204;-57
2022/04/17 08:50:33;;;;;;;4.07;1.70;;;12.40;54.50;;;;;;5073445;28;20200;-59
2022/04/17 08:53:01;;;;;;;3.17;1.47;;;12.20;55.20;;;;;;5074262;28;20314;-58
2022/04/17 08:55:28;;;;;;;3.60;1.70;;;12.20;56.00;;;;;;5073733;28;20228;-58
2022/04/17 08:57:54;;;;;;;2.17;1.50;;;12.30;56.70;;;;;;5073470;28;20684;-56
2022/04/17 09:00:22;;;;;;;3.30;1.57;;;12.40;57.50;;;;;;5073461;28;20672;-58
2022/04/17 09:02:50;;;;;;;2.23;1.47;;;12.50;56.60;;;;;;5073556;28;20665;-57
2022/04/17 09:05:21;;;;;;;4.70;2.00;;;12.60;56.10;;;;;;5073662;28;20323;-58
2022/04/17 09:07:49;;;;;;;4.23;1.80;;;12.60;56.80;;;;;;5073500;28;20663;-57
2022/04/17 09:10:27;;;;;;;2.43;1.60;;;12.60;56.20;;;;;;5073235;28;20239;-57
2022/04/17 09:12:55;;;;;;;2.50;1.80;;;12.80;55.00;;;;;;5073556;28;20204;-57
2022/04/17 09:15:25;;;;;;;6.23;2.07;;;12.80;55.60;;;;;;5073499;28;20228;-57
2022/04/17 09:17:52;;;;;;;3.63;1.87;;;12.80;54.20;;;;;;5073237;28;20216;-57
2022/04/17 09:20:21;;;;;;;2.30;1.60;;;12.80;54.20;;;;;;5073452;28;20213;-57
2022/04/17 09:22:50;;;;;;;1.73;1.27;;;12.80;53.70;;;;;;5073160;28;20534;-57
2022/04/17 09:25:17;;;;;;;3.30;1.50;;;12.80;54.00;;;;;;5073177;28;20235;-57
2022/04/17 09:27:56;;;;;;;1.63;1.27;;;12.90;54.10;;;;;;5073260;28;20331;-57
2022/04/17 09:30:29;;;;;;;2.27;1.57;;;13.00;53.50;;;;;;5072852;28;20289;-57
2022/04/17 09:32:56;;;;;;;2.53;1.30;;;13.10;53.70;;;;;;5072927;28;20205;-57
2022/04/17 09:35:24;;;;;;;1.93;1.30;;;13.20;54.20;;;;;;5072683;28;20260;-57
2022/04/17 09:37:54;;;;;;;1.93;1.10;;;13.20;52.90;;;;;;5073096;28;20248;-57
2022/04/17 09:40:21;;;;;;;3.27;1.87;;;13.30;53.30;;;;;;5072723;28;20208;-57
2022/04/17 09:42:49;;;;;;;1.83;1.57;;;13.40;53.40;;;;;;5072998;28;20205;-57
2022/04/17 09:45:15;;;;;;;1.77;1.40;;;13.40;51.90;;;;;;5072599;28;20339;-57
2022/04/17 09:47:55;;;;;;;2.40;1.50;;;13.40;52.30;;;;;;5072823;28;20231;-57
2022/04/17 09:50:31;;;;;;;2.60;1.50;;;13.40;53.40;;;;;;5072910;28;20239;-57
2022/04/17 09:52:58;;;;;;;2.87;2.03;;;13.60;52.50;;;;;;5072767;28;20315;-57
2022/04/17 09:55:28;;;;;;;1.90;1.17;;;13.70;52.40;;;;;;5072638;28;20771;-57
2022/04/17 09:57:57;;;;;;;1.67;1.27;;;13.90;52.60;;;;;;5072743;28;20308;-57
2022/04/17 10:00:24;;;;;;;2.80;1.43;;;13.90;50.50;;;;;;5072425;28;20255;-57
2022/04/17 10:02:52;;;;;;;2.10;1.57;;;13.80;50.80;;;;;;5072813;28;20205;-57
2022/04/17 10:05:21;;;;;;;1.13;1.03;;;13.80;51.20;;;;;;5072660;28;20316;-57
2022/04/17 10:07:48;;;;;;;2.60;1.13;;;13.90;51.50;;;;;;5072400;28;20704;-57
2022/04/17 10:10:17;;;;;;;1.90;1.30;;;13.90;50.90;;;;;;5072160;28;20208;-57
2022/04/17 10:12:45;;;;;;;3.50;1.60;;;13.90;50.30;;;;;;5072319;28;20236;-57
2022/04/17 10:15:13;;;;;;;2.03;1.60;;;14.00;50.20;;;;;;5072320;28;20221;-57
2022/04/17 10:17:43;;;;;;;2.47;1.67;;;14.00;49.90;;;;;;5072271;28;20596;-57
2022/04/17 10:20:14;;;;;;;2.20;1.20;;;14.00;50.60;;;;;;5072561;28;20208;-57
2022/04/17 10:22:43;;;;;;;2.30;1.50;;;14.10;49.90;;;;;;5072094;28;20612;-57
2022/04/17 10:25:10;;;;;;;1.70;1.37;;;14.10;51.00;;;;;;5072262;28;20224;-57
2022/04/17 10:27:42;;;;;;;2.50;1.20;;;14.10;51.10;;;;;;5072119;28;20209;-56
2022/04/17 10:30:12;;;;;;;2.37;1.43;;;14.20;50.60;;;;;;5072131;28;20205;-56
2022/04/17 10:33:24;;;;;;;2.07;1.30;;;14.20;50.00;;;;;;5072054;28;20231;-56
2022/04/17 10:36:16;;;;;;;3.50;1.60;;;14.40;51.00;;;;;;5065186;28;20228;-59
2022/04/17 10:38:46;;;;;;;5.27;1.40;;;14.40;51.20;;;;;;5072328;28;20220;-57
2022/04/17 10:41:14;;;;;;;1.67;1.17;;;14.60;51.10;;;;;;5072250;28;20415;-57
2022/04/17 10:43:57;;;;;;;2.23;1.00;;;14.80;50.40;;;;;;5071851;28;20250;-57
2022/04/17 10:46:25;;;;;;;3.13;1.80;;;15.10;50.30;;;;;;5071885;28;20248;-57
2022/04/17 10:48:54;;;;;;;2.00;1.50;;;15.20;50.80;;;;;;5071876;28;20664;-58
2022/04/17 10:51:24;;;;;;;1.77;1.37;;;15.40;50.70;;;;;;5071354;28;20696;-57
2022/04/17 10:53:58;;;;;;;3.23;1.60;;;15.60;50.50;;;;;;5071672;28;20291;-58
2022/04/17 10:56:25;;;;;;;2.97;1.50;;;15.60;50.60;;;;;;5071634;28;20289;-57
2022/04/17 10:58:53;;;;;;;3.43;0.90;;;15.60;49.50;;;;;;5071067;28;20219;-56
2022/04/17 11:01:51;;;;;;;2.07;1.20;;;15.60;49.20;;;;;;5071581;28;20262;-56
2022/04/17 11:04:21;;;;;;;2.87;1.60;;;15.60;49.20;;;;;;5071637;28;20303;-58
2022/04/17 11:07:15;;;;;;;1.07;0.90;;;15.40;49.50;;;;;;5072093;28;20225;-57
2022/04/17 11:09:44;;;;;;;4.20;1.20;;;15.40;48.70;;;;;;5071345;28;20212;-57
2022/04/17 11:12:23;;;;;;;1.33;1.13;;;15.30;48.90;;;;;;5071375;28;20584;-57
2022/04/17 11:14:54;;;;;;;1.60;1.30;;;15.40;48.60;;;;;;5071300;28;20611;-57
2022/04/17 11:17:22;;;;;;;1.67;1.10;;;15.40;48.40;;;;;;5071309;28;20287;-57
2022/04/17 11:19:50;;;;;;;3.60;2.47;;;15.50;48.40;;;;;;5071005;28;20648;-57
2022/04/17 11:22:17;;;;;;;1.77;1.30;;;15.60;49.10;;;;;;5071464;28;20201;-57
2022/04/17 11:25:07;;;;;;;3.70;1.80;;;15.70;47.60;;;;;;5071615;28;20212;-57
2022/04/17 11:27:38;;;;;;;2.80;1.70;;;16.00;49.50;;;;;;5071346;28;20313;-57
2022/04/17 11:30:07;;;;;;;2.23;1.80;;;16.20;48.50;;;;;;5071397;28;20232;-57
2022/04/17 11:32:48;;;;;;;1.90;1.67;;;16.30;47.50;;;;;;5071417;28;20510;-57
2022/04/17 11:35:16;;;;;;;3.00;1.93;;;16.40;48.90;;;;;;5071594;28;20314;-57
2022/04/17 11:37:52;;;;;;;1.37;1.10;;;16.40;50.60;;;;;;5071305;28;20213;-57
2022/04/17 11:40:23;;;;;;;1.83;1.10;;;16.70;48.20;;;;;;5071244;28;20212;-66
2022/04/17 11:42:52;;;;;;;1.90;1.33;;;16.80;46.80;;;;;;5071430;28;20205;-60
2022/04/17 11:45:20;;;;;;;3.20;1.20;;;16.80;47.40;;;;;;5071041;28;20232;-60
2022/04/17 11:47:49;;;;;;;1.95;1.30;;;17.00;47.70;;;;;;5070634;28;20503;-62
2022/04/17 11:50:26;;;;;;;2.47;1.70;;;17.30;47.90;;;;;;5066574;28;20829;-63
2022/04/17 11:52:53;;;;;;;1.60;1.20;;;17.40;47.60;;;;;;5070658;28;20257;-61
2022/04/17 11:55:29;;;;;;;2.00;1.30;;;17.20;47.30;;;;;;5071153;28;20228;-64
2022/04/17 11:57:57;;;;;;;2.13;1.00;;;17.10;46.90;;;;;;5071068;28;20691;-61
2022/04/17 12:00:25;;;;;;;2.83;1.20;;;17.10;47.40;;;;;;5070211;28;20213;-60
2022/04/17 12:02:59;;;;;;;2.83;1.47;;;17.00;47.50;;;;;;5070816;28;20296;-64
2022/04/17 12:05:27;;;;;;;2.50;1.13;;;17.10;47.10;;;;;;5070689;28;20251;-64
2022/04/17 12:07:58;;;;;;;2.65;1.20;;;17.10;47.20;;;;;;5071276;28;20213;-64
2022/04/17 12:10:25;;;;;;;1.80;0.60;;;17.00;47.60;;;;;;5072800;28;20592;-63
2022/04/17 12:12:53;;;;;;;1.13;0.90;;;17.10;47.30;;;;;;5070003;28;20604;-61
2022/04/17 12:15:21;;;;;;;1.67;1.20;;;17.00;46.90;;;;;;5072431;28;20248;-59
2022/04/17 12:17:58;;;;;;;1.17;0.90;;;16.90;46.80;;;;;;5074106;28;20590;-58
2022/04/17 12:20:25;;;;;;;2.17;1.10;;;16.80;46.00;;;;;;5072158;28;20914;-59
2022/04/17 12:22:52;;;;;;;2.03;1.00;;;16.70;45.90;;;;;;5074182;28;20244;-58
2022/04/17 12:25:21;;;;;;;3.10;1.10;;;16.80;46.10;;;;;;5073891;28;20248;-58
2022/04/17 12:27:48;;;;;;;1.83;1.07;;;16.80;45.70;;;;;;5074290;28;20205;-62
2022/04/17 12:30:19;;;;;;;3.30;1.23;;;16.80;47.10;;;;;;5073670;28;20205;-64
2022/04/17 12:32:46;;;;;;;2.13;1.20;;;16.90;46.40;;;;;;5074152;28;20286;-60
2022/04/17 12:35:22;;;;;;;1.57;1.10;;;16.80;46.10;;;;;;5073819;28;20545;-59
2022/04/17 12:37:48;;;;;;;1.40;0.90;;;16.70;46.10;;;;;;5072661;28;20208;-61
2022/04/17 12:40:20;;;;;;;1.60;0.90;;;16.60;45.90;;;;;;5073737;28;20703;-60
2022/04/17 12:42:47;;;;;;;2.10;0.93;;;16.40;45.30;;;;;;5073640;28;20223;-58
2022/04/17 12:45:25;;;;;;;1.30;1.10;;;16.60;46.40;;;;;;5073466;28;20297;-61
2022/04/17 12:48:03;;;;;;;1.50;1.00;;;16.70;45.20;;;;;;5073911;28;20273;-62
2022/04/17 12:50:30;;;;;;;3.27;1.10;;;16.90;44.60;;;;;;5073479;28;20207;-60
2022/04/17 12:52:58;;;;;;;1.73;1.13;;;16.90;45.00;;;;;;5071774;28;20241;-58
2022/04/17 12:55:31;;;;;;;1.73;1.10;;;17.00;46.00;;;;;;5071621;28;20225;-61
2022/04/17 12:57:59;;;;;;;1.57;1.00;;;17.10;46.70;;;;;;5072404;28;20239;-59
2022/04/17 13:00:27;;;;;;;2.70;1.00;;;17.20;45.60;;;;;;5072831;28;20208;-59
2022/04/17 13:03:11;;;;;;;1.77;1.13;;;17.30;46.40;;;;;;5073691;28;20320;-59
2022/04/17 13:05:38;;;;;;;1.63;1.08;;;17.30;46.60;;;;;;5073207;28;20260;-59
2022/04/17 13:08:06;;;;;;;3.38;1.30;;;17.40;47.40;;;;;;5073096;28;20201;-58